Sterling/Rock Falls, Illinois
Current Conditions -  °F | °C
As of 1:35 PM on Thursday 23 Oct 2014 (Local Time) from KSQI Reporting Station
Overcast Overcast  
Wind Chill: 57°   Ceiling: 4300
Heat Index: 57°   Visibility: 10mi
Dew Point: 43°   Wind: 6mph
Humidity: 59%   Direction: 190°S
Pressure: 30.11"   Gusts: NA
Location:  41.73°N, 89.68°W
Report Text: KSQI 231835Z AUTO 19005KT 10SM OVC043 14/06 A3011 RMK AO1
Loading
Personal Weather Stations






























Interactive Weather Map New forecast layout! Learn more

10-Day Weather Forecast

Advertisements
Track Severe Weather on mobile